KPNA

Ralph Wenz Field Airport

Pinedale, Wyoming, USA
METAR KPNA 181535Z AUTO 29003KT 10SM CLR 01/M03 A3032 RMK AO2
Observed Flight Rules
Oct-18 @ 15:35 UTC (21 minutes ago) Visual Flight Rules
Wind Visibility Clouds
290° at 3 knots 10 miles
  • Clear skies
Temperatures Readings
Current 1°C / 34°F
Dewpoint -3°C / 27°F
Humidity 75%
Altimeter 30.32" Hg
Pressure 1027 hPa
Elevation 2160
METAR KPNA 181535Z AUTO 29003KT 10SM CLR 01/M03 A3032 RMK AO2
Observed Flight Rules
Oct-18 @ 15:35 UTC
(21 minutes ago)
VFR
Wind Visibility
290° at 3 knots 10 miles
Clouds
  • Clear skies
Temperature Dewpoint
1°C / 34°F -3°C / 27°F
Humidity Altimeter Pressure
75% 30.32" Hg 1027 hPa